createdAt,value
2019-01-28T00:00:43.037Z,2.06
2019-01-28T00:03:09.794Z,1.99
2019-01-28T00:05:36.404Z,1.93
2019-01-28T00:08:02.993Z,1.90
2019-01-28T00:10:29.527Z,1.93
2019-01-28T00:12:56.140Z,1.93
2019-01-28T00:15:23.792Z,1.94
2019-01-28T00:17:50.417Z,1.92
2019-01-28T00:20:17.014Z,1.91
2019-01-28T00:22:43.620Z,1.91
2019-01-28T00:25:10.142Z,1.90
2019-01-28T00:27:36.884Z,1.89
2019-01-28T00:30:05.863Z,1.86
2019-01-28T00:32:32.681Z,1.85
2019-01-28T00:34:59.285Z,1.80
2019-01-28T00:37:27.903Z,1.77
2019-01-28T00:39:54.594Z,1.76
2019-01-28T00:42:21.118Z,1.75
2019-01-28T00:44:48.069Z,1.74
2019-01-28T00:47:14.709Z,1.71
2019-01-28T00:49:41.634Z,1.70
2019-01-28T00:52:08.140Z,1.71
2019-01-28T00:54:34.744Z,1.75
2019-01-28T00:57:02.040Z,1.82
2019-01-28T00:59:28.515Z,1.86
2019-01-28T01:01:54.978Z,1.87
2019-01-28T01:04:21.760Z,1.92
2019-01-28T01:06:48.213Z,1.98
2019-01-28T01:09:15.051Z,1.98
2019-01-28T01:11:41.587Z,2.02
2019-01-28T01:14:08.137Z,2.07
2019-01-28T01:16:34.591Z,2.07
2019-01-28T01:19:01.485Z,2.06
2019-01-28T01:21:28.017Z,2.08
2019-01-28T01:23:54.551Z,2.09
2019-01-28T01:26:21.405Z,2.10
2019-01-28T01:28:47.862Z,2.08
2019-01-28T01:31:14.763Z,2.10
2019-01-28T01:33:41.236Z,2.14
2019-01-28T01:36:07.869Z,2.13
2019-01-28T01:38:34.334Z,2.12
2019-01-28T01:41:00.845Z,2.10
2019-01-28T01:43:27.357Z,2.09
2019-01-28T01:45:54.138Z,2.11
2019-01-28T01:48:20.632Z,2.09
2019-01-28T01:50:47.146Z,2.12
2019-01-28T01:53:13.637Z,2.13
2019-01-28T01:55:40.095Z,2.13
2019-01-28T01:58:06.609Z,2.14
2019-01-28T02:00:33.418Z,2.08
2019-01-28T02:03:00.256Z,2.02
2019-01-28T02:05:26.785Z,2.01
2019-01-28T02:07:53.632Z,2.05
2019-01-28T02:10:20.265Z,2.05
2019-01-28T02:12:46.876Z,2.02
2019-01-28T02:15:17.905Z,2.01
2019-01-28T02:17:44.785Z,1.98
2019-01-28T02:20:11.758Z,1.95
2019-01-28T02:22:38.230Z,1.86
2019-01-28T02:25:05.507Z,1.83
2019-01-28T02:27:31.999Z,1.73
2019-01-28T02:29:58.512Z,1.70
2019-01-28T02:32:25.029Z,1.74
2019-01-28T02:34:51.675Z,1.74
2019-01-28T02:37:18.586Z,1.68
2019-01-28T02:39:45.321Z,1.62
2019-01-28T02:42:11.813Z,1.53
2019-01-28T02:44:39.328Z,1.44
2019-01-28T02:47:05.872Z,1.40
2019-01-28T02:49:32.920Z,1.35
2019-01-28T02:51:59.412Z,1.30
2019-01-28T02:54:26.215Z,1.24
2019-01-28T02:56:52.802Z,1.26
2019-01-28T02:59:19.245Z,1.32
2019-01-28T03:01:45.749Z,1.30
2019-01-28T03:04:12.663Z,1.35
2019-01-28T03:06:39.366Z,1.33
2019-01-28T03:09:07.148Z,1.30
2019-01-28T03:11:33.616Z,1.34
2019-01-28T03:14:00.138Z,1.30
2019-01-28T03:16:26.622Z,1.27
2019-01-28T03:18:53.208Z,1.24
2019-01-28T03:21:19.678Z,1.25
2019-01-28T03:23:46.438Z,1.27
2019-01-28T03:26:12.930Z,1.22
2019-01-28T03:28:39.419Z,1.13
2019-01-28T03:31:05.941Z,1.08
2019-01-28T03:33:32.640Z,1.14
2019-01-28T03:35:59.138Z,1.04
2019-01-28T03:38:26.046Z,1.05
2019-01-28T03:40:53.011Z,1.06
2019-01-28T03:43:19.888Z,1.05
2019-01-28T03:45:46.566Z,1.00
2019-01-28T03:48:13.084Z,1.05
2019-01-28T03:50:39.585Z,1.02
2019-01-28T03:53:06.453Z,1.07
2019-01-28T03:55:33.271Z,1.14
2019-01-28T03:57:59.722Z,1.14
2019-01-28T04:00:26.333Z,1.17
2019-01-28T04:02:52.966Z,1.15
2019-01-28T04:05:19.725Z,1.07
2019-01-28T04:07:46.707Z,1.02
2019-01-28T04:10:16.032Z,0.95
2019-01-28T04:12:42.545Z,0.95
2019-01-28T04:15:10.381Z,1.12
2019-01-28T04:17:36.965Z,1.22
2019-01-28T04:20:05.368Z,1.26
2019-01-28T04:22:31.886Z,1.19
2019-01-28T04:24:58.755Z,1.08
2019-01-28T04:27:25.274Z,1.08
2019-01-28T04:29:51.919Z,1.07
2019-01-28T04:32:18.424Z,1.03
2019-01-28T04:34:45.236Z,1.02
2019-01-28T04:37:11.779Z,0.96
2019-01-28T04:39:38.307Z,0.95
2019-01-28T04:42:04.899Z,0.89
2019-01-28T04:44:31.702Z,1.01
2019-01-28T04:46:58.446Z,1.02
2019-01-28T04:49:25.033Z,0.98
2019-01-28T04:51:51.822Z,0.98
2019-01-28T04:54:18.341Z,1.03
2019-01-28T04:56:50.286Z,1.18
2019-01-28T04:59:16.755Z,1.24
2019-01-28T05:01:43.384Z,1.21
2019-01-28T05:04:09.861Z,1.19
2019-01-28T05:06:36.405Z,1.18
2019-01-28T05:09:07.087Z,1.22
2019-01-28T05:11:33.847Z,1.22
2019-01-28T05:14:00.576Z,1.20
2019-01-28T05:16:27.109Z,1.31
2019-01-28T05:18:53.634Z,1.34
2019-01-28T05:21:20.109Z,1.44
2019-01-28T05:23:46.617Z,1.53
2019-01-28T05:26:13.099Z,1.56
2019-01-28T05:28:39.741Z,1.64
2019-01-28T05:31:06.198Z,1.67
2019-01-28T05:33:33.041Z,1.64
2019-01-28T05:35:59.567Z,1.65
2019-01-28T05:38:26.050Z,1.63
2019-01-28T05:40:53.437Z,1.61
2019-01-28T05:43:19.932Z,1.64
2019-01-28T05:45:46.440Z,1.52
2019-01-28T05:48:13.013Z,1.46
2019-01-28T05:50:39.475Z,1.41
2019-01-28T05:53:06.053Z,1.38
2019-01-28T05:55:32.542Z,1.40
2019-01-28T05:57:59.069Z,1.44
2019-01-28T06:00:32.564Z,1.45
2019-01-28T06:02:59.100Z,1.47
2019-01-28T06:05:25.632Z,1.40
2019-01-28T06:07:52.466Z,1.33
2019-01-28T06:10:19.425Z,1.37
2019-01-28T06:12:45.906Z,1.31
2019-01-28T06:15:13.889Z,1.34
2019-01-28T06:17:41.581Z,1.39
2019-01-28T06:20:15.139Z,1.51
2019-01-28T06:22:41.629Z,1.52
2019-01-28T06:25:08.472Z,1.48
2019-01-28T06:27:34.982Z,1.51
2019-01-28T06:30:01.581Z,1.53
2019-01-28T06:32:28.068Z,1.52
2019-01-28T06:34:54.831Z,1.50
2019-01-28T06:37:21.466Z,1.52
2019-01-28T06:39:48.458Z,1.51
2019-01-28T06:42:15.052Z,1.50
2019-01-28T06:44:44.922Z,1.50
2019-01-28T06:47:11.526Z,1.55
2019-01-28T06:49:38.228Z,1.57
2019-01-28T06:52:04.967Z,1.57
2019-01-28T06:54:31.471Z,1.53
2019-01-28T06:56:57.970Z,1.51
2019-01-28T06:59:24.484Z,1.50
2019-01-28T07:01:56.028Z,1.50
2019-01-28T07:04:30.808Z,1.56
2019-01-28T07:06:57.406Z,1.56
2019-01-28T07:09:23.944Z,1.54
2019-01-28T07:29:20.934Z,1.51
2019-01-28T07:31:47.728Z,1.54
2019-01-28T07:34:14.209Z,1.52
2019-01-28T07:36:43.244Z,1.48
2019-01-28T07:39:09.872Z,1.46
2019-01-28T07:41:36.691Z,1.45
2019-01-28T07:44:03.872Z,1.46
2019-01-28T07:46:33.137Z,1.51
2019-01-28T07:49:00.432Z,1.49
2019-01-28T07:51:35.065Z,1.54
2019-01-28T07:54:04.560Z,1.58
2019-01-28T07:56:31.051Z,1.62
2019-01-28T07:58:57.509Z,1.66
2019-01-28T08:01:23.994Z,1.63
2019-01-28T08:03:50.449Z,1.62
2019-01-28T08:06:16.928Z,1.62
2019-01-28T08:08:43.435Z,1.56
2019-01-28T08:11:09.908Z,1.51
2019-01-28T08:13:36.524Z,1.48
2019-01-28T08:16:03.149Z,1.55
2019-01-28T08:18:29.870Z,1.57
2019-01-28T08:20:56.370Z,1.60
2019-01-28T08:23:23.871Z,1.63
2019-01-28T08:25:50.355Z,1.62
2019-01-28T08:28:17.113Z,1.73
2019-01-28T08:30:43.827Z,1.90
2019-01-28T08:33:10.386Z,2.00
2019-01-28T08:35:37.568Z,1.99
2019-01-28T08:38:04.183Z,2.04
2019-01-28T08:40:30.801Z,2.04
2019-01-28T08:42:57.664Z,2.09
2019-01-28T08:45:24.263Z,2.11
2019-01-28T08:47:53.518Z,2.14
2019-01-28T08:50:20.982Z,2.16
2019-01-28T08:52:47.739Z,2.21
2019-01-28T08:55:16.182Z,2.28
2019-01-28T08:57:42.732Z,2.36
2019-01-28T09:00:15.480Z,2.48
2019-01-28T09:02:42.054Z,2.58
2019-01-28T09:05:09.118Z,2.52
2019-01-28T09:07:35.711Z,2.55
2019-01-28T09:10:02.651Z,2.53
2019-01-28T09:12:29.505Z,2.57
2019-01-28T09:14:55.958Z,2.57
2019-01-28T09:17:22.531Z,2.53
2019-01-28T09:19:49.145Z,2.55
2019-01-28T09:22:15.653Z,2.59
2019-01-28T09:24:42.170Z,2.53
2019-01-28T09:27:08.806Z,2.52
2019-01-28T09:29:35.439Z,2.49
2019-01-28T09:32:02.666Z,2.45
2019-01-28T09:34:29.381Z,2.44
2019-01-28T09:36:56.964Z,2.42
2019-01-28T09:39:23.510Z,2.37
2019-01-28T09:41:50.001Z,2.32
2019-01-28T09:44:16.474Z,2.34
2019-01-28T09:46:43.676Z,2.33
2019-01-28T09:49:10.167Z,2.34
2019-01-28T09:51:36.753Z,2.36
2019-01-28T09:54:03.573Z,2.38
2019-01-28T09:56:30.057Z,2.42
2019-01-28T09:58:56.539Z,2.40
2019-01-28T10:01:23.056Z,2.42
2019-01-28T10:03:49.987Z,2.42
2019-01-28T10:06:16.542Z,2.44
2019-01-28T10:08:43.074Z,2.43
2019-01-28T10:11:09.618Z,2.46
2019-01-28T10:13:38.233Z,2.48
2019-01-28T10:16:04.991Z,2.50
2019-01-28T10:18:31.702Z,2.57
2019-01-28T10:20:58.288Z,2.75
2019-01-28T10:23:26.174Z,2.85
2019-01-28T10:25:57.636Z,2.90
2019-01-28T10:28:21.289Z,2.89
2019-01-28T10:30:47.993Z,2.88
2019-01-28T10:33:14.584Z,2.93
2019-01-28T10:35:42.801Z,2.97
2019-01-28T10:38:09.426Z,2.91
2019-01-28T10:40:37.852Z,2.92
2019-01-28T10:43:05.573Z,2.99
2019-01-28T10:45:32.067Z,2.97
2019-01-28T10:48:00.619Z,2.97
2019-01-28T10:50:27.363Z,2.93
2019-01-28T10:52:53.942Z,2.91
2019-01-28T10:55:20.834Z,2.92
2019-01-28T10:57:47.384Z,2.91
2019-01-28T11:00:22.523Z,2.97
2019-01-28T11:02:49.389Z,3.00
2019-01-28T11:05:15.980Z,3.02
2019-01-28T11:07:42.565Z,3.01
2019-01-28T11:10:10.495Z,3.02
2019-01-28T11:12:37.350Z,3.03
2019-01-28T11:15:06.053Z,3.00
2019-01-28T11:17:32.623Z,2.99
2019-01-28T11:19:59.245Z,3.06
2019-01-28T11:22:25.865Z,2.96
2019-01-28T11:24:52.461Z,2.90
2019-01-28T11:27:21.430Z,2.88
2019-01-28T11:29:48.297Z,2.88
2019-01-28T11:32:15.007Z,2.89
2019-01-28T11:34:42.132Z,2.82
2019-01-28T11:37:08.868Z,2.81
2019-01-28T11:39:35.765Z,2.88
2019-01-28T11:42:02.557Z,2.87
2019-01-28T11:44:33.351Z,2.98
2019-01-28T11:47:00.338Z,3.09
2019-01-28T11:49:26.980Z,3.19
2019-01-28T11:51:53.974Z,3.26
2019-01-28T11:54:20.487Z,3.31
2019-01-28T11:56:47.081Z,3.31
2019-01-28T11:59:15.105Z,3.35
2019-01-28T12:01:41.828Z,3.38
2019-01-28T12:04:19.113Z,3.36
2019-01-28T12:06:45.838Z,3.42
2019-01-28T12:09:12.475Z,3.42
2019-01-28T12:11:39.018Z,3.52
2019-01-28T12:14:05.659Z,3.54
2019-01-28T12:16:32.527Z,3.64
2019-01-28T12:18:59.028Z,3.73
2019-01-28T12:21:25.974Z,3.75
2019-01-28T12:23:53.534Z,3.87
2019-01-28T12:26:20.527Z,3.71
2019-01-28T12:28:47.042Z,3.78
2019-01-28T12:31:13.882Z,3.86
2019-01-28T12:33:40.399Z,3.94
2019-01-28T12:36:06.968Z,3.93
2019-01-28T12:38:33.854Z,3.92
2019-01-28T12:41:00.723Z,3.82
2019-01-28T12:43:27.410Z,3.78
2019-01-28T12:45:53.919Z,3.72
2019-01-28T12:48:20.607Z,3.67
2019-01-28T12:50:47.234Z,3.78
2019-01-28T12:53:13.899Z,3.65
2019-01-28T12:55:40.385Z,3.62
2019-01-28T12:58:07.046Z,3.59
2019-01-28T13:00:41.707Z,3.57
2019-01-28T13:03:09.661Z,3.61
2019-01-28T13:05:36.494Z,3.62
2019-01-28T13:08:03.393Z,3.59
2019-01-28T13:10:30.033Z,3.56
2019-01-28T13:12:56.551Z,3.50
2019-01-28T13:15:25.766Z,3.45
2019-01-28T13:17:53.101Z,3.45
2019-01-28T13:20:19.767Z,3.37
2019-01-28T13:22:46.787Z,3.35
2019-01-28T13:25:14.350Z,3.34
2019-01-28T13:27:41.095Z,3.35
2019-01-28T13:30:11.776Z,3.36
2019-01-28T13:32:38.447Z,3.42
2019-01-28T13:35:05.481Z,3.46
2019-01-28T13:37:35.681Z,3.46
2019-01-28T13:40:04.983Z,3.56
2019-01-28T13:42:31.537Z,3.59
2019-01-28T13:44:59.868Z,3.66
2019-01-28T13:47:26.722Z,3.75
2019-01-28T13:49:54.357Z,3.90
2019-01-28T13:52:20.944Z,3.91
2019-01-28T13:54:47.757Z,3.84
2019-01-28T13:57:14.392Z,3.76
2019-01-28T13:59:41.270Z,3.75
2019-01-28T14:02:08.359Z,3.68
2019-01-28T14:04:36.180Z,3.54
2019-01-28T14:07:03.216Z,3.57
2019-01-28T14:09:30.096Z,3.48
2019-01-28T14:11:56.605Z,3.43
2019-01-28T14:14:23.497Z,3.38
2019-01-28T14:16:50.124Z,3.34
2019-01-28T14:19:16.670Z,3.23
2019-01-28T14:21:44.353Z,3.19
2019-01-28T14:24:10.951Z,3.16
2019-01-28T14:26:37.505Z,3.08
2019-01-28T14:29:04.231Z,3.03
2019-01-28T14:31:31.353Z,2.99
2019-01-28T14:33:58.070Z,2.94
2019-01-28T14:36:24.649Z,2.91
2019-01-28T14:38:51.646Z,2.89
2019-01-28T14:41:18.139Z,2.86
2019-01-28T14:43:44.644Z,2.81
2019-01-28T14:46:11.121Z,2.75
2019-01-28T14:48:37.984Z,2.65
2019-01-28T14:51:04.475Z,2.58
2019-01-28T14:53:33.276Z,2.56
2019-01-28T14:55:59.802Z,2.49
2019-01-28T14:58:26.643Z,2.39
2019-01-28T15:00:54.939Z,2.32
2019-01-28T15:03:21.669Z,2.29
2019-01-28T15:05:48.292Z,2.21
2019-01-28T15:08:14.887Z,2.19
2019-01-28T15:10:41.509Z,2.20
2019-01-28T15:13:10.103Z,2.14
2019-01-28T15:15:37.466Z,2.11
2019-01-28T15:18:11.478Z,2.08
2019-01-28T15:20:38.570Z,2.01
2019-01-28T15:23:05.279Z,1.99
2019-01-28T15:25:31.760Z,1.95
2019-01-28T15:27:58.567Z,1.83
2019-01-28T15:30:26.536Z,1.77
2019-01-28T15:32:54.080Z,1.74
2019-01-28T15:35:20.709Z,1.74
2019-01-28T15:37:48.238Z,1.75
2019-01-28T15:40:23.017Z,1.76
2019-01-28T15:42:52.932Z,1.79
2019-01-28T15:45:24.443Z,1.80
2019-01-28T15:47:51.141Z,1.79
2019-01-28T15:50:20.240Z,1.79
2019-01-28T15:52:47.019Z,1.78
2019-01-28T15:55:17.344Z,1.82
2019-01-28T15:57:44.469Z,1.84
2019-01-28T16:00:14.946Z,1.87
2019-01-28T16:02:43.706Z,1.88
2019-01-28T16:05:13.454Z,1.89
2019-01-28T16:07:39.964Z,1.92
2019-01-28T16:10:09.555Z,1.94
2019-01-28T16:12:36.091Z,1.93
2019-01-28T16:15:04.327Z,1.91
2019-01-28T16:17:31.119Z,1.91
2019-01-28T16:19:58.279Z,1.91
2019-01-28T16:22:24.856Z,1.91
2019-01-28T16:24:51.553Z,1.86
2019-01-28T16:27:18.274Z,1.88
2019-01-28T16:29:44.809Z,1.87
2019-01-28T16:32:11.336Z,1.88
2019-01-28T16:34:37.897Z,1.92
2019-01-28T16:37:04.746Z,1.93
2019-01-28T16:39:31.299Z,1.94
2019-01-28T16:41:58.466Z,1.99
2019-01-28T16:44:25.216Z,1.98
2019-01-28T16:46:51.692Z,2.02
2019-01-28T16:49:18.395Z,2.04
2019-01-28T16:51:45.492Z,2.02
2019-01-28T16:54:13.199Z,2.01
2019-01-28T16:56:40.243Z,2.02
2019-01-28T16:59:07.097Z,2.02
2019-01-28T17:01:33.641Z,2.00
2019-01-28T17:04:00.769Z,2.05
2019-01-28T17:06:27.331Z,2.08
2019-01-28T17:08:53.957Z,2.06
2019-01-28T17:11:20.506Z,2.08
2019-01-28T17:13:47.924Z,2.04
2019-01-28T17:16:14.593Z,2.04
2019-01-28T17:18:41.144Z,2.03
2019-01-28T17:21:07.740Z,2.01
2019-01-28T17:23:34.289Z,1.98
2019-01-28T17:26:00.837Z,1.93
2019-01-28T17:28:29.701Z,1.90
2019-01-28T17:30:58.329Z,1.84
2019-01-28T17:33:46.449Z,1.85
2019-01-28T17:36:13.519Z,1.80
2019-01-28T17:38:42.566Z,1.82
2019-01-28T17:41:10.432Z,1.80
2019-01-28T17:44:06.627Z,1.83
2019-01-28T17:46:33.216Z,1.81
2019-01-28T17:49:03.385Z,1.81
2019-01-28T17:51:39.385Z,1.80
2019-01-28T17:54:12.051Z,1.81
2019-01-28T17:57:05.395Z,1.80
2019-01-28T17:59:40.963Z,1.81
2019-01-28T18:02:10.901Z,1.80
2019-01-28T18:04:49.615Z,1.83
2019-01-28T18:07:34.808Z,1.83
2019-01-28T18:10:04.053Z,1.81
2019-01-28T18:12:43.017Z,1.79
2019-01-28T18:15:12.849Z,1.83
2019-01-28T18:17:40.794Z,1.82
2019-01-28T18:20:09.299Z,1.86
2019-01-28T18:22:43.481Z,1.87
2019-01-28T18:25:19.419Z,1.85
2019-01-28T18:27:46.094Z,1.86
2019-01-28T18:30:40.718Z,1.85
2019-01-28T18:33:07.231Z,1.83
2019-01-28T18:35:35.016Z,1.90
2019-01-28T18:38:02.474Z,1.92
2019-01-28T18:40:29.092Z,1.92
2019-01-28T18:42:56.804Z,1.91
2019-01-28T18:45:23.853Z,1.89
2019-01-28T18:47:50.376Z,1.94
2019-01-28T18:50:17.261Z,1.90
2019-01-28T18:52:44.536Z,1.88
2019-01-28T18:55:11.301Z,1.85
2019-01-28T18:57:37.832Z,1.86
2019-01-28T19:00:08.987Z,1.84
2019-01-28T19:02:35.623Z,1.83
2019-01-28T19:05:03.699Z,1.83
2019-01-28T19:07:41.343Z,1.84
2019-01-28T19:10:31.011Z,1.87
2019-01-28T19:13:08.052Z,1.87
2019-01-28T19:16:03.490Z,1.88
2019-01-28T19:18:35.129Z,1.88
2019-01-28T19:21:21.872Z,1.87
2019-01-28T19:23:48.367Z,1.91
2019-01-28T19:26:14.865Z,1.86
2019-01-28T19:28:45.725Z,1.83
2019-01-28T19:31:16.414Z,1.88
2019-01-28T19:33:42.952Z,1.83
2019-01-28T19:36:15.116Z,1.80
2019-01-28T19:38:47.519Z,1.80
2019-01-28T19:41:26.483Z,1.82
2019-01-28T19:44:14.854Z,1.80
2019-01-28T19:46:41.597Z,1.83
2019-01-28T19:49:08.612Z,1.84
2019-01-28T19:51:35.419Z,1.84
2019-01-28T19:54:02.300Z,1.83
2019-01-28T19:56:32.052Z,1.76
2019-01-28T19:59:10.382Z,1.73
2019-01-28T20:01:46.293Z,1.69
2019-01-28T20:04:15.634Z,1.67
2019-01-28T20:06:46.411Z,1.61
2019-01-28T20:09:16.069Z,1.62
2019-01-28T20:11:42.607Z,1.58
2019-01-28T20:14:12.215Z,1.59
2019-01-28T20:16:40.848Z,1.58
2019-01-28T20:19:11.152Z,1.58
2019-01-28T20:21:41.456Z,1.50
2019-01-28T20:24:10.153Z,1.50
2019-01-28T20:26:36.696Z,1.52
2019-01-28T20:29:03.864Z,1.49
2019-01-28T20:31:30.715Z,1.45
2019-01-28T20:34:06.436Z,1.41
2019-01-28T20:36:40.292Z,1.39
2019-01-28T20:39:39.063Z,1.43
2019-01-28T20:42:15.778Z,1.38
2019-01-28T20:44:48.677Z,1.35
2019-01-28T20:47:15.186Z,1.30
2019-01-28T20:49:42.085Z,1.25
2019-01-28T20:52:08.768Z,1.26
2019-01-28T20:54:35.621Z,1.25
2019-01-28T20:57:03.471Z,1.23
2019-01-28T20:59:30.413Z,1.23
2019-01-28T21:01:57.034Z,1.15
2019-01-28T21:04:23.498Z,1.16
2019-01-28T21:06:50.135Z,1.12
2019-01-28T21:09:18.713Z,1.16
2019-01-28T21:11:45.624Z,1.10
2019-01-28T21:14:12.438Z,1.05
2019-01-28T21:16:38.982Z,1.05
2019-01-28T21:19:05.587Z,0.98
2019-01-28T21:21:32.888Z,0.93
2019-01-28T21:24:01.122Z,0.91
2019-01-28T21:26:27.720Z,0.92
2019-01-28T21:28:56.399Z,0.88
2019-01-28T21:31:25.013Z,0.88
2019-01-28T21:33:51.842Z,0.87
2019-01-28T21:36:27.687Z,0.88
2019-01-28T21:38:54.597Z,0.88
2019-01-28T21:41:21.314Z,0.86
2019-01-28T21:43:47.935Z,0.87
2019-01-28T21:46:14.740Z,0.87
2019-01-28T21:48:41.267Z,0.88
2019-01-28T21:51:07.889Z,0.88
2019-01-28T21:53:34.487Z,0.84
2019-01-28T21:56:01.824Z,0.83
2019-01-28T21:58:28.387Z,0.78
2019-01-28T22:00:54.980Z,0.78
2019-01-28T22:03:22.032Z,0.79
2019-01-28T22:05:48.603Z,0.80
2019-01-28T22:08:15.058Z,0.76
2019-01-28T22:10:41.601Z,0.77
2019-01-28T22:13:08.165Z,0.80
2019-01-28T22:15:35.101Z,0.80
2019-01-28T22:18:01.712Z,0.80
2019-01-28T22:20:28.296Z,0.80
2019-01-28T22:22:54.836Z,0.78
2019-01-28T22:25:21.587Z,0.79
2019-01-28T22:27:56.972Z,0.79
2019-01-28T22:30:18.017Z,0.77
2019-01-28T22:32:44.549Z,0.78
2019-01-28T22:35:11.351Z,0.74
2019-01-28T22:37:37.855Z,0.75
2019-01-28T22:40:06.434Z,0.76
2019-01-28T22:42:32.974Z,0.73
2019-01-28T22:44:59.560Z,0.76
2019-01-28T22:47:26.080Z,0.73
2019-01-28T22:49:52.560Z,0.74
2019-01-28T22:52:19.288Z,0.69
2019-01-28T22:54:45.751Z,0.70
2019-01-28T22:57:12.273Z,0.72
2019-01-28T22:59:38.920Z,0.69
2019-01-28T23:02:05.815Z,0.66
2019-01-28T23:04:32.623Z,0.68
2019-01-28T23:06:59.159Z,0.66
2019-01-28T23:09:25.730Z,0.69
2019-01-28T23:11:52.465Z,0.69
2019-01-28T23:14:18.939Z,0.70
2019-01-28T23:16:45.605Z,0.72
2019-01-28T23:19:12.190Z,0.68
2019-01-28T23:21:38.765Z,0.69
2019-01-28T23:24:05.472Z,0.69
2019-01-28T23:26:31.986Z,0.70
2019-01-28T23:28:58.664Z,0.71
2019-01-28T23:31:25.275Z,0.68
2019-01-28T23:33:51.882Z,0.67
2019-01-28T23:36:19.476Z,0.61
2019-01-28T23:38:46.321Z,0.56
2019-01-28T23:41:12.881Z,0.50
2019-01-28T23:43:39.341Z,0.46
2019-01-28T23:46:07.916Z,0.44
2019-01-28T23:48:34.547Z,0.36
2019-01-28T23:51:01.045Z,0.37
2019-01-28T23:53:27.837Z,0.42
2019-01-28T23:55:54.374Z,0.33
2019-01-28T23:58:20.966Z,0.30
